sensor_id;sensor_type;location;lat;lon;timestamp;P1;durP1;ratioP1;P2;durP2;ratioP2
10365;SDS011;5229;41.820;23.490;2022-08-07T00:02:03;3.63;;;3.20;;
10365;SDS011;5229;41.820;23.490;2022-08-07T00:04:31;4.50;;;3.30;;
10365;SDS011;5229;41.820;23.490;2022-08-07T00:06:58;3.87;;;3.47;;
10365;SDS011;5229;41.820;23.490;2022-08-07T00:09:24;4.70;;;3.40;;
10365;SDS011;5229;41.820;23.490;2022-08-07T00:11:51;3.70;;;3.33;;
10365;SDS011;5229;41.820;23.490;2022-08-07T00:14:19;3.60;;;3.30;;
10365;SDS011;5229;41.820;23.490;2022-08-07T00:16:46;2.97;;;2.70;;
10365;SDS011;5229;41.820;23.490;2022-08-07T00:19:13;3.50;;;3.20;;
10365;SDS011;5229;41.820;23.490;2022-08-07T00:21:41;4.13;;;3.50;;
10365;SDS011;5229;41.820;23.490;2022-08-07T00:24:08;4.10;;;3.73;;
10365;SDS011;5229;41.820;23.490;2022-08-07T00:26:36;3.50;;;3.20;;
10365;SDS011;5229;41.820;23.490;2022-08-07T00:29:03;4.10;;;3.70;;
10365;SDS011;5229;41.820;23.490;2022-08-07T00:31:30;3.90;;;3.40;;
10365;SDS011;5229;41.820;23.490;2022-08-07T00:33:56;4.03;;;3.70;;
10365;SDS011;5229;41.820;23.490;2022-08-07T00:36:23;4.40;;;3.77;;
10365;SDS011;5229;41.820;23.490;2022-08-07T00:38:51;3.40;;;3.10;;
10365;SDS011;5229;41.820;23.490;2022-08-07T00:41:24;4.07;;;3.67;;
10365;SDS011;5229;41.820;23.490;2022-08-07T00:43:51;4.33;;;3.23;;
10365;SDS011;5229;41.820;23.490;2022-08-07T00:46:18;3.47;;;3.00;;
10365;SDS011;5229;41.820;23.490;2022-08-07T00:48:45;3.33;;;3.03;;
10365;SDS011;5229;41.820;23.490;2022-08-07T00:51:12;4.57;;;3.30;;
10365;SDS011;5229;41.820;23.490;2022-08-07T00:53:40;4.17;;;3.77;;
10365;SDS011;5229;41.820;23.490;2022-08-07T00:56:08;3.70;;;3.23;;
10365;SDS011;5229;41.820;23.490;2022-08-07T00:58:36;3.70;;;3.40;;
10365;SDS011;5229;41.820;23.490;2022-08-07T01:01:07;6.93;;;3.60;;
10365;SDS011;5229;41.820;23.490;2022-08-07T01:03:34;4.73;;;3.73;;
10365;SDS011;5229;41.820;23.490;2022-08-07T01:06:01;3.90;;;3.57;;
10365;SDS011;5229;41.820;23.490;2022-08-07T01:08:28;4.17;;;3.60;;
10365;SDS011;5229;41.820;23.490;2022-08-07T01:10:55;4.77;;;3.93;;
10365;SDS011;5229;41.820;23.490;2022-08-07T01:13:24;4.00;;;3.60;;
10365;SDS011;5229;41.820;23.490;2022-08-07T01:15:50;5.10;;;3.40;;
10365;SDS011;5229;41.820;23.490;2022-08-07T01:18:18;4.30;;;3.90;;
10365;SDS011;5229;41.820;23.490;2022-08-07T01:20:47;4.33;;;3.40;;
10365;SDS011;5229;41.820;23.490;2022-08-07T01:23:21;3.87;;;3.50;;
10365;SDS011;5229;41.820;23.490;2022-08-07T01:25:49;3.33;;;3.07;;
10365;SDS011;5229;41.820;23.490;2022-08-07T01:28:16;3.73;;;3.40;;
10365;SDS011;5229;41.820;23.490;2022-08-07T01:30:43;3.17;;;2.87;;
10365;SDS011;5229;41.820;23.490;2022-08-07T01:33:10;4.07;;;3.63;;
10365;SDS011;5229;41.820;23.490;2022-08-07T01:35:37;3.30;;;3.00;;
10365;SDS011;5229;41.820;23.490;2022-08-07T01:38:05;3.80;;;3.40;;
10365;SDS011;5229;41.820;23.490;2022-08-07T01:40:34;4.27;;;3.83;;
10365;SDS011;5229;41.820;23.490;2022-08-07T01:43:01;5.00;;;3.60;;
10365;SDS011;5229;41.820;23.490;2022-08-07T01:45:28;4.47;;;3.50;;
10365;SDS011;5229;41.820;23.490;2022-08-07T01:47:57;4.20;;;3.80;;
10365;SDS011;5229;41.820;23.490;2022-08-07T01:50:24;3.80;;;3.50;;
10365;SDS011;5229;41.820;23.490;2022-08-07T01:52:53;3.60;;;3.30;;
10365;SDS011;5229;41.820;23.490;2022-08-07T01:55:23;3.47;;;3.10;;
10365;SDS011;5229;41.820;23.490;2022-08-07T01:57:54;4.00;;;3.70;;
10365;SDS011;5229;41.820;23.490;2022-08-07T02:00:25;4.37;;;3.97;;
10365;SDS011;5229;41.820;23.490;2022-08-07T02:02:56;4.40;;;4.00;;
10365;SDS011;5229;41.820;23.490;2022-08-07T02:05:26;3.83;;;3.47;;
10365;SDS011;5229;41.820;23.490;2022-08-07T02:07:58;4.37;;;4.03;;
10365;SDS011;5229;41.820;23.490;2022-08-07T02:10:29;4.10;;;3.70;;
10365;SDS011;5229;41.820;23.490;2022-08-07T02:12:59;4.00;;;3.60;;
10365;SDS011;5229;41.820;23.490;2022-08-07T02:15:28;6.77;;;4.00;;
10365;SDS011;5229;41.820;23.490;2022-08-07T02:17:56;4.50;;;3.60;;
10365;SDS011;5229;41.820;23.490;2022-08-07T02:20:25;3.70;;;3.40;;
10365;SDS011;5229;41.820;23.490;2022-08-07T02:22:54;3.63;;;3.33;;
10365;SDS011;5229;41.820;23.490;2022-08-07T02:25:23;3.70;;;3.40;;
10365;SDS011;5229;41.820;23.490;2022-08-07T02:27:51;4.03;;;3.63;;
10365;SDS011;5229;41.820;23.490;2022-08-07T02:30:21;4.20;;;3.80;;
10365;SDS011;5229;41.820;23.490;2022-08-07T02:32:49;4.03;;;3.50;;
10365;SDS011;5229;41.820;23.490;2022-08-07T02:35:17;3.80;;;3.50;;
10365;SDS011;5229;41.820;23.490;2022-08-07T02:37:45;3.50;;;3.17;;
10365;SDS011;5229;41.820;23.490;2022-08-07T02:40:14;3.70;;;3.40;;
10365;SDS011;5229;41.820;23.490;2022-08-07T02:42:41;3.37;;;3.03;;
10365;SDS011;5229;41.820;23.490;2022-08-07T02:45:09;3.90;;;3.53;;
10365;SDS011;5229;41.820;23.490;2022-08-07T02:47:41;4.10;;;3.70;;
10365;SDS011;5229;41.820;23.490;2022-08-07T02:50:08;4.07;;;3.47;;
10365;SDS011;5229;41.820;23.490;2022-08-07T02:52:37;4.00;;;3.60;;
10365;SDS011;5229;41.820;23.490;2022-08-07T02:55:11;4.07;;;3.37;;
10365;SDS011;5229;41.820;23.490;2022-08-07T02:57:45;3.23;;;2.93;;
10365;SDS011;5229;41.820;23.490;2022-08-07T03:00:14;4.17;;;3.77;;
10365;SDS011;5229;41.820;23.490;2022-08-07T03:02:43;4.33;;;3.33;;
10365;SDS011;5229;41.820;23.490;2022-08-07T03:05:13;4.87;;;3.77;;
10365;SDS011;5229;41.820;23.490;2022-08-07T03:07:40;3.70;;;3.40;;
10365;SDS011;5229;41.820;23.490;2022-08-07T03:10:09;4.17;;;3.30;;
10365;SDS011;5229;41.820;23.490;2022-08-07T03:12:36;4.60;;;3.17;;
10365;SDS011;5229;41.820;23.490;2022-08-07T03:15:05;3.63;;;3.33;;
10365;SDS011;5229;41.820;23.490;2022-08-07T03:17:34;4.00;;;3.60;;
10365;SDS011;5229;41.820;23.490;2022-08-07T03:20:04;3.40;;;3.10;;
10365;SDS011;5229;41.820;23.490;2022-08-07T03:22:32;4.50;;;3.90;;
10365;SDS011;5229;41.820;23.490;2022-08-07T03:24:59;6.03;;;4.37;;
10365;SDS011;5229;41.820;23.490;2022-08-07T03:27:27;5.47;;;4.60;;
10365;SDS011;5229;41.820;23.490;2022-08-07T03:29:54;4.90;;;4.20;;
10365;SDS011;5229;41.820;23.490;2022-08-07T03:32:23;5.43;;;3.77;;
10365;SDS011;5229;41.820;23.490;2022-08-07T03:34:55;3.93;;;3.63;;
10365;SDS011;5229;41.820;23.490;2022-08-07T03:37:25;6.47;;;4.07;;
10365;SDS011;5229;41.820;23.490;2022-08-07T03:39:53;4.83;;;4.30;;
10365;SDS011;5229;41.820;23.490;2022-08-07T03:42:21;4.57;;;4.17;;
10365;SDS011;5229;41.820;23.490;2022-08-07T03:44:49;4.00;;;3.60;;
10365;SDS011;5229;41.820;23.490;2022-08-07T03:47:16;4.60;;;4.17;;
10365;SDS011;5229;41.820;23.490;2022-08-07T03:49:44;5.13;;;4.10;;
10365;SDS011;5229;41.820;23.490;2022-08-07T03:52:11;5.20;;;4.57;;
10365;SDS011;5229;41.820;23.490;2022-08-07T03:54:41;4.93;;;4.50;;
10365;SDS011;5229;41.820;23.490;2022-08-07T03:57:08;5.00;;;4.50;;
10365;SDS011;5229;41.820;23.490;2022-08-07T03:59:35;4.73;;;4.20;;
10365;SDS011;5229;41.820;23.490;2022-08-07T04:02:03;5.07;;;4.47;;
10365;SDS011;5229;41.820;23.490;2022-08-07T04:04:32;5.23;;;4.53;;
10365;SDS011;5229;41.820;23.490;2022-08-07T04:06:59;5.40;;;4.90;;
10365;SDS011;5229;41.820;23.490;2022-08-07T04:09:26;5.83;;;4.53;;
10365;SDS011;5229;41.820;23.490;2022-08-07T04:11:55;5.27;;;4.33;;
10365;SDS011;5229;41.820;23.490;2022-08-07T04:14:23;4.57;;;4.17;;
10365;SDS011;5229;41.820;23.490;2022-08-07T04:16:51;4.30;;;3.93;;
10365;SDS011;5229;41.820;23.490;2022-08-07T04:19:17;5.20;;;3.73;;
10365;SDS011;5229;41.820;23.490;2022-08-07T04:21:44;4.70;;;3.87;;
10365;SDS011;5229;41.820;23.490;2022-08-07T04:24:12;8.80;;;4.30;;
10365;SDS011;5229;41.820;23.490;2022-08-07T04:26:40;4.27;;;3.87;;
10365;SDS011;5229;41.820;23.490;2022-08-07T04:29:08;5.33;;;4.00;;
10365;SDS011;5229;41.820;23.490;2022-08-07T04:31:36;4.10;;;3.70;;
10365;SDS011;5229;41.820;23.490;2022-08-07T04:34:03;4.20;;;3.80;;
10365;SDS011;5229;41.820;23.490;2022-08-07T04:36:31;4.68;;;3.80;;
10365;SDS011;5229;41.820;23.490;2022-08-07T04:38:59;4.32;;;3.92;;
10365;SDS011;5229;41.820;23.490;2022-08-07T04:41:26;5.68;;;4.57;;
10365;SDS011;5229;41.820;23.490;2022-08-07T04:43:53;4.68;;;4.20;;
10365;SDS011;5229;41.820;23.490;2022-08-07T04:46:24;5.13;;;4.63;;
10365;SDS011;5229;41.820;23.490;2022-08-07T04:48:59;6.05;;;5.10;;
10365;SDS011;5229;41.820;23.490;2022-08-07T04:51:33;5.32;;;4.82;;
10365;SDS011;5229;41.820;23.490;2022-08-07T04:54:10;5.15;;;4.75;;
10365;SDS011;5229;41.820;23.490;2022-08-07T04:56:44;7.40;;;5.50;;
10365;SDS011;5229;41.820;23.490;2022-08-07T04:59:15;6.43;;;5.22;;
10365;SDS011;5229;41.820;23.490;2022-08-07T05:02:01;6.15;;;5.55;;
10365;SDS011;5229;41.820;23.490;2022-08-07T05:04:33;7.60;;;6.72;;
10365;SDS011;5229;41.820;23.490;2022-08-07T05:07:06;7.38;;;6.63;;
10365;SDS011;5229;41.820;23.490;2022-08-07T05:09:39;9.02;;;6.30;;
10365;SDS011;5229;41.820;23.490;2022-08-07T05:12:10;7.72;;;7.00;;
10365;SDS011;5229;41.820;23.490;2022-08-07T05:14:42;9.20;;;7.28;;
10365;SDS011;5229;41.820;23.490;2022-08-07T05:17:16;7.53;;;6.82;;
10365;SDS011;5229;41.820;23.490;2022-08-07T05:19:46;9.27;;;7.13;;
10365;SDS011;5229;41.820;23.490;2022-08-07T05:22:15;7.60;;;6.43;;
10365;SDS011;5229;41.820;23.490;2022-08-07T05:24:44;6.72;;;6.13;;
10365;SDS011;5229;41.820;23.490;2022-08-07T05:27:12;7.57;;;6.18;;
10365;SDS011;5229;41.820;23.490;2022-08-07T05:29:43;6.43;;;5.82;;
10365;SDS011;5229;41.820;23.490;2022-08-07T05:32:13;5.97;;;5.47;;
10365;SDS011;5229;41.820;23.490;2022-08-07T05:34:43;6.22;;;5.72;;
10365;SDS011;5229;41.820;23.490;2022-08-07T05:37:11;6.80;;;6.10;;
10365;SDS011;5229;41.820;23.490;2022-08-07T05:39:40;13.38;;;5.10;;
10365;SDS011;5229;41.820;23.490;2022-08-07T05:42:07;5.75;;;4.53;;
10365;SDS011;5229;41.820;23.490;2022-08-07T05:44:35;4.82;;;4.15;;
10365;SDS011;5229;41.820;23.490;2022-08-07T05:47:04;5.03;;;4.55;;
10365;SDS011;5229;41.820;23.490;2022-08-07T05:49:35;8.63;;;6.15;;
10365;SDS011;5229;41.820;23.490;2022-08-07T05:52:03;6.57;;;5.57;;
10365;SDS011;5229;41.820;23.490;2022-08-07T05:54:30;6.60;;;5.97;;
10365;SDS011;5229;41.820;23.490;2022-08-07T05:56:57;6.43;;;5.68;;
10365;SDS011;5229;41.820;23.490;2022-08-07T05:59:24;6.65;;;6.05;;
10365;SDS011;5229;41.820;23.490;2022-08-07T06:01:51;5.75;;;5.22;;
10365;SDS011;5229;41.820;23.490;2022-08-07T06:04:19;6.28;;;5.70;;
10365;SDS011;5229;41.820;23.490;2022-08-07T06:06:49;5.95;;;5.40;;
10365;SDS011;5229;41.820;23.490;2022-08-07T06:09:16;5.10;;;4.60;;
10365;SDS011;5229;41.820;23.490;2022-08-07T06:11:43;6.03;;;4.47;;
10365;SDS011;5229;41.820;23.490;2022-08-07T06:14:11;5.20;;;4.70;;
10365;SDS011;5229;41.820;23.490;2022-08-07T06:16:38;4.63;;;4.22;;
10365;SDS011;5229;41.820;23.490;2022-08-07T06:19:06;4.78;;;3.97;;
10365;SDS011;5229;41.820;23.490;2022-08-07T06:21:34;3.53;;;3.08;;
10365;SDS011;5229;41.820;23.490;2022-08-07T06:24:04;3.72;;;3.40;;
10365;SDS011;5229;41.820;23.490;2022-08-07T06:26:31;4.10;;;3.70;;
10365;SDS011;5229;41.820;23.490;2022-08-07T06:28:58;3.40;;;3.10;;
10365;SDS011;5229;41.820;23.490;2022-08-07T06:31:25;3.20;;;2.90;;
10365;SDS011;5229;41.820;23.490;2022-08-07T06:33:52;3.25;;;2.95;;
10365;SDS011;5229;41.820;23.490;2022-08-07T06:36:19;3.63;;;3.05;;
10365;SDS011;5229;41.820;23.490;2022-08-07T06:38:46;3.40;;;3.10;;
10365;SDS011;5229;41.820;23.490;2022-08-07T06:41:16;3.10;;;2.80;;
10365;SDS011;5229;41.820;23.490;2022-08-07T06:43:46;2.80;;;2.60;;
10365;SDS011;5229;41.820;23.490;2022-08-07T06:46:14;4.25;;;2.78;;
10365;SDS011;5229;41.820;23.490;2022-08-07T06:48:41;3.45;;;2.90;;
10365;SDS011;5229;41.820;23.490;2022-08-07T06:51:09;4.95;;;3.05;;
10365;SDS011;5229;41.820;23.490;2022-08-07T06:53:38;3.80;;;2.97;;
10365;SDS011;5229;41.820;23.490;2022-08-07T06:56:06;3.00;;;2.67;;
10365;SDS011;5229;41.820;23.490;2022-08-07T06:58:36;3.10;;;2.80;;
10365;SDS011;5229;41.820;23.490;2022-08-07T07:01:05;2.85;;;2.47;;
10365;SDS011;5229;41.820;23.490;2022-08-07T07:03:34;3.10;;;2.80;;
10365;SDS011;5229;41.820;23.490;2022-08-07T07:06:05;3.65;;;3.15;;
10365;SDS011;5229;41.820;23.490;2022-08-07T07:08:33;2.92;;;2.72;;
10365;SDS011;5229;41.820;23.490;2022-08-07T07:11:00;3.42;;;3.13;;
10365;SDS011;5229;41.820;23.490;2022-08-07T07:13:30;3.20;;;2.90;;
10365;SDS011;5229;41.820;23.490;2022-08-07T07:16:01;3.40;;;3.10;;
10365;SDS011;5229;41.820;23.490;2022-08-07T07:18:34;5.75;;;3.00;;
10365;SDS011;5229;41.820;23.490;2022-08-07T07:21:07;3.25;;;2.83;;
10365;SDS011;5229;41.820;23.490;2022-08-07T07:23:37;3.60;;;3.30;;
10365;SDS011;5229;41.820;23.490;2022-08-07T07:26:05;2.47;;;2.28;;
10365;SDS011;5229;41.820;23.490;2022-08-07T07:28:35;3.25;;;2.95;;
10365;SDS011;5229;41.820;23.490;2022-08-07T07:31:09;2.65;;;2.45;;
10365;SDS011;5229;41.820;23.490;2022-08-07T07:33:41;3.20;;;2.90;;
10365;SDS011;5229;41.820;23.490;2022-08-07T07:36:10;2.95;;;2.70;;
10365;SDS011;5229;41.820;23.490;2022-08-07T07:38:37;3.20;;;2.90;;
10365;SDS011;5229;41.820;23.490;2022-08-07T07:41:07;3.28;;;2.95;;
10365;SDS011;5229;41.820;23.490;2022-08-07T07:43:38;2.85;;;2.65;;
10365;SDS011;5229;41.820;23.490;2022-08-07T07:46:08;3.35;;;2.60;;
10365;SDS011;5229;41.820;23.490;2022-08-07T07:48:35;2.72;;;2.50;;
10365;SDS011;5229;41.820;23.490;2022-08-07T07:51:04;3.40;;;2.83;;
10365;SDS011;5229;41.820;23.490;2022-08-07T07:53:33;3.92;;;3.03;;
10365;SDS011;5229;41.820;23.490;2022-08-07T07:56:03;3.33;;;3.03;;
10365;SDS011;5229;41.820;23.490;2022-08-07T07:58:33;6.78;;;3.22;;
10365;SDS011;5229;41.820;23.490;2022-08-07T08:01:02;2.97;;;2.70;;
10365;SDS011;5229;41.820;23.490;2022-08-07T08:03:32;2.58;;;2.38;;
10365;SDS011;5229;41.820;23.490;2022-08-07T08:06:02;3.30;;;2.80;;
10365;SDS011;5229;41.820;23.490;2022-08-07T08:08:30;3.30;;;2.88;;
10365;SDS011;5229;41.820;23.490;2022-08-07T08:10:58;5.03;;;3.20;;
10365;SDS011;5229;41.820;23.490;2022-08-07T08:13:25;3.55;;;2.95;;
10365;SDS011;5229;41.820;23.490;2022-08-07T08:15:54;2.85;;;2.63;;
10365;SDS011;5229;41.820;23.490;2022-08-07T08:18:25;3.33;;;3.03;;
10365;SDS011;5229;41.820;23.490;2022-08-07T08:20:55;3.50;;;3.20;;
10365;SDS011;5229;41.820;23.490;2022-08-07T08:23:25;3.13;;;2.85;;
10365;SDS011;5229;41.820;23.490;2022-08-07T08:26:10;3.13;;;2.70;;
10365;SDS011;5229;41.820;23.490;2022-08-07T08:28:57;3.25;;;2.97;;
10365;SDS011;5229;41.820;23.490;2022-08-07T08:31:28;3.05;;;2.75;;
10365;SDS011;5229;41.820;23.490;2022-08-07T08:33:58;3.03;;;2.72;;
10365;SDS011;5229;41.820;23.490;2022-08-07T08:36:29;3.97;;;3.03;;
10365;SDS011;5229;41.820;23.490;2022-08-07T08:38:59;3.60;;;3.30;;
10365;SDS011;5229;41.820;23.490;2022-08-07T08:41:29;3.78;;;3.45;;
10365;SDS011;5229;41.820;23.490;2022-08-07T08:44:05;3.10;;;2.80;;
10365;SDS011;5229;41.820;23.490;2022-08-07T08:46:41;4.00;;;3.00;;
10365;SDS011;5229;41.820;23.490;2022-08-07T08:49:17;3.55;;;3.25;;
10365;SDS011;5229;41.820;23.490;2022-08-07T08:51:54;3.45;;;2.92;;
10365;SDS011;5229;41.820;23.490;2022-08-07T08:54:27;6.35;;;2.78;;
10365;SDS011;5229;41.820;23.490;2022-08-07T08:56:59;3.45;;;3.15;;
10365;SDS011;5229;41.820;23.490;2022-08-07T08:59:36;4.50;;;2.95;;
10365;SDS011;5229;41.820;23.490;2022-08-07T09:02:14;3.10;;;2.90;;
10365;SDS011;5229;41.820;23.490;2022-08-07T09:04:50;3.90;;;3.20;;
10365;SDS011;5229;41.820;23.490;2022-08-07T09:07:30;3.28;;;2.97;;
10365;SDS011;5229;41.820;23.490;2022-08-07T09:10:13;3.47;;;3.17;;
10365;SDS011;5229;41.820;23.490;2022-08-07T09:12:47;3.50;;;3.20;;
10365;SDS011;5229;41.820;23.490;2022-08-07T09:15:30;3.30;;;3.00;;
10365;SDS011;5229;41.820;23.490;2022-08-07T09:18:14;4.65;;;2.92;;
10365;SDS011;5229;41.820;23.490;2022-08-07T09:20:47;3.50;;;3.20;;
10365;SDS011;5229;41.820;23.490;2022-08-07T09:23:36;3.47;;;3.17;;
10365;SDS011;5229;41.820;23.490;2022-08-07T09:26:14;3.38;;;3.03;;
10365;SDS011;5229;41.820;23.490;2022-08-07T09:28:50;3.88;;;3.25;;
10365;SDS011;5229;41.820;23.490;2022-08-07T09:31:23;3.38;;;3.03;;
10365;SDS011;5229;41.820;23.490;2022-08-07T09:34:05;3.33;;;3.03;;
10365;SDS011;5229;41.820;23.490;2022-08-07T09:36:38;3.40;;;3.10;;
10365;SDS011;5229;41.820;23.490;2022-08-07T09:39:21;3.55;;;3.25;;
10365;SDS011;5229;41.820;23.490;2022-08-07T09:41:58;3.50;;;3.20;;
10365;SDS011;5229;41.820;23.490;2022-08-07T09:44:35;3.15;;;2.85;;
10365;SDS011;5229;41.820;23.490;2022-08-07T09:47:14;3.47;;;3.17;;
10365;SDS011;5229;41.820;23.490;2022-08-07T09:49:52;3.60;;;3.30;;
10365;SDS011;5229;41.820;23.490;2022-08-07T09:52:28;3.55;;;3.25;;
10365;SDS011;5229;41.820;23.490;2022-08-07T09:55:03;3.22;;;2.92;;
10365;SDS011;5229;41.820;23.490;2022-08-07T10:00:37;3.60;;;2.92;;
10365;SDS011;5229;41.820;23.490;2022-08-07T10:03:25;3.60;;;3.30;;
10365;SDS011;5229;41.820;23.490;2022-08-07T10:09:24;3.40;;;3.05;;
10365;SDS011;5229;41.820;23.490;2022-08-07T10:12:07;3.70;;;3.40;;
10365;SDS011;5229;41.820;23.490;2022-08-07T10:14:47;3.10;;;2.88;;
10365;SDS011;5229;41.820;23.490;2022-08-07T10:17:52;3.55;;;2.97;;
10365;SDS011;5229;41.820;23.490;2022-08-07T10:20:38;3.53;;;3.22;;
10365;SDS011;5229;41.820;23.490;2022-08-07T10:23:23;3.97;;;3.58;;
10365;SDS011;5229;41.820;23.490;2022-08-07T10:26:12;4.18;;;3.22;;
10365;SDS011;5229;41.820;23.490;2022-08-07T10:29:06;3.60;;;3.30;;
10365;SDS011;5229;41.820;23.490;2022-08-07T10:34:43;3.80;;;3.47;;
10365;SDS011;5229;41.820;23.490;2022-08-07T10:37:28;6.65;;;3.28;;
10365;SDS011;5229;41.820;23.490;2022-08-07T10:40:07;3.28;;;3.00;;
10365;SDS011;5229;41.820;23.490;2022-08-07T10:42:40;3.50;;;3.20;;
10365;SDS011;5229;41.820;23.490;2022-08-07T10:45:23;3.53;;;3.22;;
10365;SDS011;5229;41.820;23.490;2022-08-07T10:47:56;3.88;;;3.47;;
10365;SDS011;5229;41.820;23.490;2022-08-07T10:50:30;4.95;;;3.28;;
10365;SDS011;5229;41.820;23.490;2022-08-07T10:53:07;3.97;;;3.65;;
10365;SDS011;5229;41.820;23.490;2022-08-07T10:55:41;3.25;;;3.05;;
10365;SDS011;5229;41.820;23.490;2022-08-07T10:58:22;3.78;;;3.42;;
10365;SDS011;5229;41.820;23.490;2022-08-07T11:01:18;5.97;;;3.50;;
10365;SDS011;5229;41.820;23.490;2022-08-07T11:03:54;3.67;;;3.38;;
10365;SDS011;5229;41.820;23.490;2022-08-07T11:06:29;4.20;;;3.80;;
10365;SDS011;5229;41.820;23.490;2022-08-07T11:09:06;4.05;;;3.10;;
10365;SDS011;5229;41.820;23.490;2022-08-07T11:11:38;4.97;;;3.42;;
10365;SDS011;5229;41.820;23.490;2022-08-07T11:14:12;3.70;;;2.83;;
10365;SDS011;5229;41.820;23.490;2022-08-07T11:16:46;5.88;;;3.30;;
10365;SDS011;5229;41.820;23.490;2022-08-07T11:19:19;3.70;;;3.40;;
10365;SDS011;5229;41.820;23.490;2022-08-07T11:21:53;3.38;;;3.17;;
10365;SDS011;5229;41.820;23.490;2022-08-07T11:24:28;2.92;;;2.72;;
10365;SDS011;5229;41.820;23.490;2022-08-07T11:27:08;3.53;;;3.22;;
10365;SDS011;5229;41.820;23.490;2022-08-07T11:29:42;3.20;;;2.90;;
10365;SDS011;5229;41.820;23.490;2022-08-07T11:32:21;3.28;;;2.97;;
10365;SDS011;5229;41.820;23.490;2022-08-07T11:35:01;3.55;;;3.13;;
10365;SDS011;5229;41.820;23.490;2022-08-07T11:37:40;3.78;;;3.42;;
10365;SDS011;5229;41.820;23.490;2022-08-07T11:40:17;3.72;;;3.17;;
10365;SDS011;5229;41.820;23.490;2022-08-07T11:42:57;3.65;;;3.35;;
10365;SDS011;5229;41.820;23.490;2022-08-07T11:45:32;3.47;;;3.17;;
10365;SDS011;5229;41.820;23.490;2022-08-07T11:48:15;3.63;;;3.25;;
10365;SDS011;5229;41.820;23.490;2022-08-07T11:53:56;4.43;;;3.38;;
10365;SDS011;5229;41.820;23.490;2022-08-07T11:56:40;4.05;;;3.15;;
10365;SDS011;5229;41.820;23.490;2022-08-07T11:59:25;3.17;;;2.95;;
10365;SDS011;5229;41.820;23.490;2022-08-07T12:02:09;3.30;;;3.00;;
10365;SDS011;5229;41.820;23.490;2022-08-07T12:04:58;4.07;;;3.63;;
10365;SDS011;5229;41.820;23.490;2022-08-07T12:07:33;4.18;;;3.78;;
10365;SDS011;5229;41.820;23.490;2022-08-07T12:10:04;4.43;;;3.17;;
10365;SDS011;5229;41.820;23.490;2022-08-07T12:12:39;3.40;;;3.10;;
10365;SDS011;5229;41.820;23.490;2022-08-07T12:15:10;4.00;;;3.60;;
10365;SDS011;5229;41.820;23.490;2022-08-07T12:17:42;4.55;;;3.55;;
10365;SDS011;5229;41.820;23.490;2022-08-07T12:20:19;4.88;;;3.53;;
10365;SDS011;5229;41.820;23.490;2022-08-07T12:22:55;5.03;;;3.50;;
10365;SDS011;5229;41.820;23.490;2022-08-07T12:25:44;3.90;;;3.50;;
10365;SDS011;5229;41.820;23.490;2022-08-07T12:28:19;2.88;;;2.67;;
10365;SDS011;5229;41.820;23.490;2022-08-07T12:30:52;3.33;;;3.03;;
10365;SDS011;5229;41.820;23.490;2022-08-07T12:33:24;4.25;;;3.60;;
10365;SDS011;5229;41.820;23.490;2022-08-07T12:35:57;3.80;;;3.40;;
10365;SDS011;5229;41.820;23.490;2022-08-07T12:38:26;3.42;;;3.03;;
10365;SDS011;5229;41.820;23.490;2022-08-07T12:40:54;6.03;;;3.20;;
10365;SDS011;5229;41.820;23.490;2022-08-07T12:43:26;19.00;;;5.43;;
10365;SDS011;5229;41.820;23.490;2022-08-07T12:46:01;5.97;;;3.20;;
10365;SDS011;5229;41.820;23.490;2022-08-07T12:48:35;3.65;;;3.35;;
10365;SDS011;5229;41.820;23.490;2022-08-07T12:51:10;3.67;;;3.30;;
10365;SDS011;5229;41.820;23.490;2022-08-07T12:53:41;3.67;;;3.30;;
10365;SDS011;5229;41.820;23.490;2022-08-07T12:56:17;3.53;;;3.20;;
10365;SDS011;5229;41.820;23.490;2022-08-07T12:58:49;3.03;;;2.75;;
10365;SDS011;5229;41.820;23.490;2022-08-07T13:01:19;4.88;;;3.33;;
10365;SDS011;5229;41.820;23.490;2022-08-07T13:04:07;3.40;;;3.10;;
10365;SDS011;5229;41.820;23.490;2022-08-07T13:09:44;3.40;;;3.08;;
10365;SDS011;5229;41.820;23.490;2022-08-07T13:12:18;4.30;;;3.47;;
10365;SDS011;5229;41.820;23.490;2022-08-07T13:14:55;3.55;;;3.08;;
10365;SDS011;5229;41.820;23.490;2022-08-07T13:17:29;3.50;;;3.20;;
10365;SDS011;5229;41.820;23.490;2022-08-07T13:20:05;4.25;;;3.60;;
10365;SDS011;5229;41.820;23.490;2022-08-07T13:22:36;3.05;;;2.85;;
10365;SDS011;5229;41.820;23.490;2022-08-07T13:25:08;3.40;;;3.10;;
10365;SDS011;5229;41.820;23.490;2022-08-07T13:27:37;4.25;;;3.85;;
10365;SDS011;5229;41.820;23.490;2022-08-07T13:30:09;3.78;;;3.47;;
10365;SDS011;5229;41.820;23.490;2022-08-07T13:32:39;3.80;;;3.50;;
10365;SDS011;5229;41.820;23.490;2022-08-07T13:35:13;3.85;;;3.47;;
10365;SDS011;5229;41.820;23.490;2022-08-07T13:37:48;3.13;;;2.90;;
10365;SDS011;5229;41.820;23.490;2022-08-07T13:40:21;3.80;;;3.50;;
10365;SDS011;5229;41.820;23.490;2022-08-07T13:42:53;3.65;;;3.35;;
10365;SDS011;5229;41.820;23.490;2022-08-07T13:45:23;3.80;;;3.50;;
10365;SDS011;5229;41.820;23.490;2022-08-07T13:47:52;4.18;;;3.78;;
10365;SDS011;5229;41.820;23.490;2022-08-07T13:50:23;3.88;;;3.58;;
10365;SDS011;5229;41.820;23.490;2022-08-07T13:52:54;4.75;;;3.78;;
10365;SDS011;5229;41.820;23.490;2022-08-07T13:55:23;3.20;;;2.90;;
10365;SDS011;5229;41.820;23.490;2022-08-07T13:57:52;3.90;;;3.60;;
10365;SDS011;5229;41.820;23.490;2022-08-07T14:00:48;4.05;;;3.67;;
10365;SDS011;5229;41.820;23.490;2022-08-07T14:03:18;4.50;;;4.00;;
10365;SDS011;5229;41.820;23.490;2022-08-07T14:05:46;4.50;;;4.07;;
10365;SDS011;5229;41.820;23.490;2022-08-07T14:08:17;3.95;;;3.53;;
10365;SDS011;5229;41.820;23.490;2022-08-07T14:10:46;7.25;;;4.18;;
10365;SDS011;5229;41.820;23.490;2022-08-07T14:13:17;3.95;;;3.42;;
10365;SDS011;5229;41.820;23.490;2022-08-07T14:15:52;3.92;;;3.53;;
10365;SDS011;5229;41.820;23.490;2022-08-07T14:18:25;3.75;;;3.45;;
10365;SDS011;5229;41.820;23.490;2022-08-07T14:21:01;4.03;;;3.53;;
10365;SDS011;5229;41.820;23.490;2022-08-07T14:23:34;4.78;;;3.88;;
10365;SDS011;5229;41.820;23.490;2022-08-07T14:26:04;4.53;;;3.90;;
10365;SDS011;5229;41.820;23.490;2022-08-07T14:28:35;3.97;;;3.38;;
10365;SDS011;5229;41.820;23.490;2022-08-07T14:31:06;4.13;;;3.72;;
10365;SDS011;5229;41.820;23.490;2022-08-07T14:33:35;4.13;;;3.72;;
10365;SDS011;5229;41.820;23.490;2022-08-07T14:36:03;4.38;;;3.75;;
10365;SDS011;5229;41.820;23.490;2022-08-07T14:38:34;4.38;;;3.63;;
10365;SDS011;5229;41.820;23.490;2022-08-07T14:41:01;4.35;;;3.30;;
10365;SDS011;5229;41.820;23.490;2022-08-07T14:43:32;4.47;;;3.78;;
10365;SDS011;5229;41.820;23.490;2022-08-07T14:46:03;6.38;;;4.00;;
10365;SDS011;5229;41.820;23.490;2022-08-07T14:48:33;4.35;;;3.95;;
10365;SDS011;5229;41.820;23.490;2022-08-07T14:51:04;3.92;;;3.53;;
10365;SDS011;5229;41.820;23.490;2022-08-07T14:53:37;4.20;;;3.80;;
10365;SDS011;5229;41.820;23.490;2022-08-07T14:56:07;6.18;;;3.50;;
10365;SDS011;5229;41.820;23.490;2022-08-07T14:58:35;4.75;;;4.35;;
10365;SDS011;5229;41.820;23.490;2022-08-07T15:01:05;3.70;;;3.40;;
10365;SDS011;5229;41.820;23.490;2022-08-07T15:03:35;4.05;;;3.65;;
10365;SDS011;5229;41.820;23.490;2022-08-07T15:06:04;4.18;;;3.63;;
10365;SDS011;5229;41.820;23.490;2022-08-07T15:08:32;3.65;;;3.35;;
10365;SDS011;5229;41.820;23.490;2022-08-07T15:11:05;4.95;;;3.78;;
10365;SDS011;5229;41.820;23.490;2022-08-07T15:13:36;4.07;;;3.63;;
10365;SDS011;5229;41.820;23.490;2022-08-07T15:16:11;3.97;;;3.33;;
10365;SDS011;5229;41.820;23.490;2022-08-07T15:18:41;2.97;;;2.78;;
10365;SDS011;5229;41.820;23.490;2022-08-07T15:21:14;3.42;;;3.13;;
10365;SDS011;5229;41.820;23.490;2022-08-07T15:23:45;4.60;;;3.13;;
10365;SDS011;5229;41.820;23.490;2022-08-07T15:26:22;3.42;;;3.13;;
10365;SDS011;5229;41.820;23.490;2022-08-07T15:28:58;3.67;;;3.00;;
10365;SDS011;5229;41.820;23.490;2022-08-07T15:31:27;4.43;;;3.58;;